Time;durP1;ratioP1;P1;durP2;ratioP2;P2;SDS_P1;SDS_P2;PMS_P1;PMS_P2;Temp;Humidity;BMP_temperature;BMP_pressure;BME280_temperature;BME280_humidity;BME280_pressure;Samples;Min_cycle;Max_cycle;Signal;HPM_P1;HPM_P2
2023/06/18 00:01:02;;;;;;;8.30;3.92;;;;;;;;;;5002912;28;20022;-84
2023/06/18 00:03:28;;;;;;;4.95;3.95;;;;;;;;;;4997397;28;20374;-84
2023/06/18 00:05:55;;;;;;;4.85;3.45;;;;;;;;;;5008830;28;20049;-84
2023/06/18 00:08:21;;;;;;;5.63;3.63;;;;;;;;;;5010023;28;20080;-84
2023/06/18 00:10:47;;;;;;;5.75;3.60;;;;;;;;;;5008458;28;21894;-84
2023/06/18 00:13:13;;;;;;;5.38;3.53;;;;;;;;;;4995410;28;20125;-83
2023/06/18 00:15:39;;;;;;;5.05;3.28;;;;;;;;;;5007640;28;20529;-83
2023/06/18 00:18:05;;;;;;;6.22;3.83;;;;;;;;;;4997232;28;20029;-83
2023/06/18 00:20:34;;;;;;;4.78;3.38;;;;;;;;;;4994810;28;20022;-84
2023/06/18 00:23:00;;;;;;;5.63;3.95;;;;;;;;;;4974152;28;20383;-84
2023/06/18 00:25:27;;;;;;;6.40;4.25;;;;;;;;;;4998467;28;20533;-84
2023/06/18 00:27:53;;;;;;;4.38;3.35;;;;;;;;;;4998936;28;20030;-84
2023/06/18 00:30:19;;;;;;;5.85;3.60;;;;;;;;;;4990037;28;20118;-84
2023/06/18 00:32:45;;;;;;;6.32;3.58;;;;;;;;;;4990560;28;20115;-85
2023/06/18 00:35:12;;;;;;;4.80;3.40;;;;;;;;;;5006682;28;20577;-85
2023/06/18 00:37:39;;;;;;;6.13;3.63;;;;;;;;;;5009648;28;20021;-84
2023/06/18 00:40:05;;;;;;;4.85;3.58;;;;;;;;;;5009155;28;20026;-85
2023/06/18 00:42:32;;;;;;;6.32;3.65;;;;;;;;;;4994922;28;20028;-84
2023/06/18 00:44:58;;;;;;;5.10;3.70;;;;;;;;;;5005746;28;20462;-83
2023/06/18 00:47:26;;;;;;;4.90;3.35;;;;;;;;;;5004917;28;20038;-83
2023/06/18 00:49:55;;;;;;;3.92;3.22;;;;;;;;;;5000430;28;20042;-84
2023/06/18 00:52:23;;;;;;;6.60;3.60;;;;;;;;;;4997324;28;20033;-83
2023/06/18 00:54:50;;;;;;;4.30;3.55;;;;;;;;;;5002041;28;20070;-83
2023/06/18 00:57:17;;;;;;;5.22;3.35;;;;;;;;;;5000237;28;20499;-83
2023/06/18 00:59:43;;;;;;;4.35;2.83;;;;;;;;;;4997950;28;20032;-82
2023/06/18 01:02:09;;;;;;;6.55;3.45;;;;;;;;;;5003344;28;20034;-83
2023/06/18 01:04:36;;;;;;;4.78;3.30;;;;;;;;;;4992505;28;20038;-83
2023/06/18 01:07:03;;;;;;;4.40;3.10;;;;;;;;;;4993052;28;20041;-82
2023/06/18 01:09:30;;;;;;;4.72;2.90;;;;;;;;;;4998771;28;20112;-83
2023/06/18 01:11:57;;;;;;;4.35;3.42;;;;;;;;;;5005279;28;20109;-82
2023/06/18 01:14:28;;;;;;;5.93;3.50;;;;;;;;;;5001428;28;20076;-82
2023/06/18 01:16:55;;;;;;;4.88;3.10;;;;;;;;;;5005854;28;20022;-82
2023/06/18 01:19:40;;;;;;;7.10;3.70;;;;;;;;;;5005456;28;20100;-83
2023/06/18 01:22:14;;;;;;;4.93;3.33;;;;;;;;;;4999633;28;20105;-84
2023/06/18 01:24:48;;;;;;;4.63;3.25;;;;;;;;;;5009482;28;20046;-83
2023/06/18 01:27:16;;;;;;;4.50;3.10;;;;;;;;;;4982628;28;20037;-83
2023/06/18 01:29:42;;;;;;;4.32;3.13;;;;;;;;;;5000561;28;20041;-85
2023/06/18 01:32:08;;;;;;;4.90;2.85;;;;;;;;;;5001904;28;20054;-84
2023/06/18 01:34:38;;;;;;;4.82;3.33;;;;;;;;;;5008647;28;20101;-83
2023/06/18 01:37:17;;;;;;;4.53;3.50;;;;;;;;;;5003207;28;20036;-84
2023/06/18 01:39:52;;;;;;;4.88;2.97;;;;;;;;;;5006411;28;20489;-83
2023/06/18 01:42:20;;;;;;;5.65;3.33;;;;;;;;;;4993168;28;20042;-84
2023/06/18 01:44:56;;;;;;;5.90;3.50;;;;;;;;;;5001843;28;20072;-83
2023/06/18 01:47:26;;;;;;;4.88;3.30;;;;;;;;;;4998901;28;20037;-84
2023/06/18 01:49:52;;;;;;;6.60;3.50;;;;;;;;;;5002310;28;20057;-84
2023/06/18 01:52:18;;;;;;;5.30;3.28;;;;;;;;;;4996429;28;20062;-83
2023/06/18 01:54:48;;;;;;;4.65;3.42;;;;;;;;;;4997904;28;20233;-83
2023/06/18 01:57:15;;;;;;;4.38;3.58;;;;;;;;;;5005521;28;20495;-83
2023/06/18 01:59:43;;;;;;;6.00;3.28;;;;;;;;;;5002831;28;20120;-82
2023/06/18 02:02:09;;;;;;;5.00;3.00;;;;;;;;;;4995599;28;20030;-83
2023/06/18 02:04:35;;;;;;;5.13;3.10;;;;;;;;;;5010001;28;20078;-84
2023/06/18 02:07:01;;;;;;;6.25;3.35;;;;;;;;;;4999023;28;20111;-82
2023/06/18 02:09:27;;;;;;;4.55;3.25;;;;;;;;;;4998856;28;20441;-84
2023/06/18 02:11:53;;;;;;;4.35;3.25;;;;;;;;;;5002277;28;20080;-83
2023/06/18 02:14:19;;;;;;;4.63;3.20;;;;;;;;;;5008410;28;20488;-83
2023/06/18 02:16:48;;;;;;;4.25;3.28;;;;;;;;;;5004380;28;20034;-83
2023/06/18 02:19:14;;;;;;;5.43;3.08;;;;;;;;;;4997155;28;20271;-83
2023/06/18 02:21:40;;;;;;;5.82;3.55;;;;;;;;;;4997871;28;20049;-84
2023/06/18 02:24:06;;;;;;;5.28;3.22;;;;;;;;;;4999779;28;20034;-82
2023/06/18 02:26:33;;;;;;;3.90;3.20;;;;;;;;;;5009317;28;20038;-83
2023/06/18 02:28:59;;;;;;;5.25;3.60;;;;;;;;;;4998826;28;20473;-82
2023/06/18 02:31:25;;;;;;;4.70;3.25;;;;;;;;;;4998514;28;20121;-83
2023/06/18 02:33:51;;;;;;;3.95;3.20;;;;;;;;;;4999686;28;20025;-83
2023/06/18 02:36:18;;;;;;;3.05;2.67;;;;;;;;;;5009063;28;20037;-84
2023/06/18 02:38:44;;;;;;;4.43;2.95;;;;;;;;;;5005847;28;20029;-83
2023/06/18 02:41:10;;;;;;;5.18;3.03;;;;;;;;;;4996182;28;20042;-84
2023/06/18 02:43:36;;;;;;;4.82;3.38;;;;;;;;;;5003302;28;20022;-84
2023/06/18 02:46:02;;;;;;;4.65;3.05;;;;;;;;;;4994046;28;20717;-83
2023/06/18 02:48:28;;;;;;;4.55;3.05;;;;;;;;;;4998234;28;20052;-83
2023/06/18 02:50:54;;;;;;;5.13;3.10;;;;;;;;;;4993970;28;21323;-83
2023/06/18 02:53:20;;;;;;;4.80;2.78;;;;;;;;;;4999772;28;20128;-84
2023/06/18 02:55:46;;;;;;;4.88;3.50;;;;;;;;;;5003885;28;20045;-83
2023/06/18 02:58:27;;;;;;;3.63;3.13;;;;;;;;;;5008114;28;20085;-84
2023/06/18 03:00:59;;;;;;;5.78;3.30;;;;;;;;;;4998321;28;20053;-84
2023/06/18 03:03:25;;;;;;;4.80;3.55;;;;;;;;;;4997186;28;20224;-83
2023/06/18 03:05:51;;;;;;;3.60;2.55;;;;;;;;;;5000439;28;20073;-84
2023/06/18 03:08:19;;;;;;;4.38;3.08;;;;;;;;;;5002282;28;20034;-84
2023/06/18 03:10:45;;;;;;;5.40;3.50;;;;;;;;;;4998117;28;20029;-84
2023/06/18 03:13:11;;;;;;;3.58;2.83;;;;;;;;;;4993739;28;20497;-84
2023/06/18 03:15:37;;;;;;;4.15;2.92;;;;;;;;;;4992624;28;20034;-84
2023/06/18 03:18:03;;;;;;;5.13;3.03;;;;;;;;;;4999006;28;20026;-84
2023/06/18 03:20:32;;;;;;;5.40;3.20;;;;;;;;;;5002073;28;20023;-84
2023/06/18 03:22:58;;;;;;;5.57;2.75;;;;;;;;;;4986862;28;20444;-84
2023/06/18 03:25:27;;;;;;;4.38;3.20;;;;;;;;;;4993790;28;20084;-84
2023/06/18 03:27:53;;;;;;;3.28;2.70;;;;;;;;;;4999482;28;20022;-84
2023/06/18 03:30:19;;;;;;;4.32;2.75;;;;;;;;;;5007225;28;20034;-84
2023/06/18 03:32:45;;;;;;;7.32;3.58;;;;;;;;;;5006231;28;20025;-84
2023/06/18 03:35:11;;;;;;;4.15;3.10;;;;;;;;;;5004821;28;20032;-85
2023/06/18 03:37:37;;;;;;;5.68;3.22;;;;;;;;;;4996566;28;20022;-84
2023/06/18 03:40:04;;;;;;;5.30;3.30;;;;;;;;;;4997446;28;20025;-84
2023/06/18 03:42:30;;;;;;;4.93;2.60;;;;;;;;;;4999748;28;20057;-84
2023/06/18 03:44:56;;;;;;;3.60;2.80;;;;;;;;;;5003928;28;20026;-84
2023/06/18 03:47:22;;;;;;;5.70;3.00;;;;;;;;;;5002994;28;20436;-84
2023/06/18 03:49:48;;;;;;;4.63;3.03;;;;;;;;;;5003511;28;20515;-83
2023/06/18 03:52:14;;;;;;;6.57;3.42;;;;;;;;;;4996391;28;20046;-83
2023/06/18 03:54:40;;;;;;;4.28;2.83;;;;;;;;;;4994733;28;20025;-79
2023/06/18 03:57:06;;;;;;;4.45;3.00;;;;;;;;;;4996747;28;20029;-84
2023/06/18 03:59:33;;;;;;;4.50;3.08;;;;;;;;;;5001489;28;20032;-83
2023/06/18 04:01:58;;;;;;;4.28;3.08;;;;;;;;;;5005190;28;20037;-83
2023/06/18 04:04:24;;;;;;;5.63;3.50;;;;;;;;;;4993994;28;20034;-84
2023/06/18 04:06:51;;;;;;;3.78;2.88;;;;;;;;;;4992566;28;20034;-83
2023/06/18 04:09:17;;;;;;;6.30;3.15;;;;;;;;;;4998895;28;20697;-83
2023/06/18 04:11:43;;;;;;;4.72;3.22;;;;;;;;;;5000776;28;20030;-84
2023/06/18 04:14:09;;;;;;;5.28;3.50;;;;;;;;;;4993789;28;20113;-83
2023/06/18 04:16:35;;;;;;;5.05;3.25;;;;;;;;;;4992307;28;20030;-83
2023/06/18 04:19:01;;;;;;;4.82;3.40;;;;;;;;;;4998381;28;20488;-79
2023/06/18 04:21:27;;;;;;;3.90;2.95;;;;;;;;;;5002430;28;20057;-82
2023/06/18 04:23:54;;;;;;;4.28;3.30;;;;;;;;;;4995189;28;20026;-83
2023/06/18 04:26:20;;;;;;;4.75;2.97;;;;;;;;;;4991871;28;20604;-82
2023/06/18 04:28:46;;;;;;;4.75;3.05;;;;;;;;;;5000748;28;20034;-82
2023/06/18 04:31:12;;;;;;;3.90;2.80;;;;;;;;;;4998831;28;21015;-83
2023/06/18 04:33:38;;;;;;;4.07;2.90;;;;;;;;;;5002589;28;20015;-83
2023/06/18 04:36:04;;;;;;;4.13;2.63;;;;;;;;;;4990855;28;20488;-83
2023/06/18 04:38:30;;;;;;;4.72;3.30;;;;;;;;;;5009228;28;20026;-83
2023/06/18 04:40:56;;;;;;;4.75;2.75;;;;;;;;;;5005090;28;20026;-83
2023/06/18 04:43:22;;;;;;;3.78;3.00;;;;;;;;;;5009908;28;20635;-82
2023/06/18 04:45:49;;;;;;;3.22;2.58;;;;;;;;;;5007016;28;20034;-83
2023/06/18 04:48:15;;;;;;;4.82;3.22;;;;;;;;;;5002945;28;20489;-83
2023/06/18 04:50:41;;;;;;;4.95;2.92;;;;;;;;;;5003464;28;20053;-84
2023/06/18 04:53:08;;;;;;;6.00;3.80;;;;;;;;;;4995427;28;20029;-84
2023/06/18 04:55:33;;;;;;;4.03;2.85;;;;;;;;;;4996194;28;20022;-84
2023/06/18 04:57:59;;;;;;;5.03;3.20;;;;;;;;;;5002367;28;20393;-84
2023/06/18 05:00:26;;;;;;;3.75;3.00;;;;;;;;;;5005956;28;20096;-84
2023/06/18 05:02:52;;;;;;;4.05;2.40;;;;;;;;;;5006995;28;20029;-83
2023/06/18 05:05:18;;;;;;;3.90;2.92;;;;;;;;;;5010544;28;20658;-84
2023/06/18 05:07:44;;;;;;;4.43;3.15;;;;;;;;;;4993985;28;20035;-84
2023/06/18 05:10:10;;;;;;;6.60;3.45;;;;;;;;;;5002029;28;20400;-84
2023/06/18 05:12:38;;;;;;;6.57;3.15;;;;;;;;;;5003535;28;20048;-84
2023/06/18 05:15:04;;;;;;;3.13;2.80;;;;;;;;;;5003469;28;20050;-83
2023/06/18 05:17:30;;;;;;;4.65;3.03;;;;;;;;;;4998829;28;20026;-83
2023/06/18 05:19:56;;;;;;;5.03;3.00;;;;;;;;;;4997487;28;20022;-84
2023/06/18 05:22:22;;;;;;;4.50;2.78;;;;;;;;;;5001351;28;20037;-84
2023/06/18 05:24:48;;;;;;;7.55;3.17;;;;;;;;;;5010166;28;20034;-83
2023/06/18 05:27:14;;;;;;;4.82;3.42;;;;;;;;;;4983544;28;20523;-83
2023/06/18 05:29:39;;;;;;;4.85;3.42;;;;;;;;;;4994140;28;20038;-83
2023/06/18 05:32:06;;;;;;;5.30;2.97;;;;;;;;;;4996160;28;20045;-83
2023/06/18 05:34:32;;;;;;;4.72;2.80;;;;;;;;;;5010743;28;20050;-83
2023/06/18 05:36:58;;;;;;;3.50;2.72;;;;;;;;;;4997077;28;20117;-83
2023/06/18 05:39:24;;;;;;;4.65;3.15;;;;;;;;;;4999027;28;20026;-83
2023/06/18 05:41:53;;;;;;;3.35;2.85;;;;;;;;;;5000213;28;20036;-83
2023/06/18 05:44:18;;;;;;;5.20;3.28;;;;;;;;;;4999981;28;20035;-84
2023/06/18 05:46:44;;;;;;;6.18;3.10;;;;;;;;;;4999223;28;20031;-84
2023/06/18 05:49:10;;;;;;;3.13;2.50;;;;;;;;;;4992427;28;20059;-83
2023/06/18 05:51:36;;;;;;;4.85;3.03;;;;;;;;;;5008879;28;20046;-83
2023/06/18 05:54:02;;;;;;;4.18;2.90;;;;;;;;;;5004381;28;20026;-83
2023/06/18 05:56:28;;;;;;;5.80;2.83;;;;;;;;;;5007803;28;20165;-84
2023/06/18 05:58:55;;;;;;;4.95;2.85;;;;;;;;;;4999076;28;20053;-83
2023/06/18 06:01:21;;;;;;;3.90;2.63;;;;;;;;;;5003535;28;20056;-84
2023/06/18 06:03:47;;;;;;;4.75;2.90;;;;;;;;;;4980442;28;20050;-82
2023/06/18 06:06:13;;;;;;;3.28;2.50;;;;;;;;;;5001947;28;20088;-83
2023/06/18 06:08:39;;;;;;;3.58;2.50;;;;;;;;;;4996460;28;20033;-83
2023/06/18 06:11:06;;;;;;;4.53;2.88;;;;;;;;;;5005577;28;20026;-84
2023/06/18 06:13:32;;;;;;;3.80;2.75;;;;;;;;;;5002368;28;20034;-84
2023/06/18 06:15:58;;;;;;;4.18;2.67;;;;;;;;;;5000937;28;20022;-83
2023/06/18 06:18:24;;;;;;;3.83;2.95;;;;;;;;;;4987099;28;20034;-83
2023/06/18 06:20:49;;;;;;;4.97;3.47;;;;;;;;;;4995260;28;20390;-84
2023/06/18 06:23:15;;;;;;;4.72;2.83;;;;;;;;;;4997324;28;20033;-84
2023/06/18 06:25:41;;;;;;;3.50;2.58;;;;;;;;;;5006010;28;20030;-83
2023/06/18 06:28:07;;;;;;;6.80;2.83;;;;;;;;;;5005713;28;20026;-83
2023/06/18 06:30:33;;;;;;;3.80;2.50;;;;;;;;;;4999531;28;20034;-83
2023/06/18 06:32:59;;;;;;;3.90;2.78;;;;;;;;;;4996242;28;20484;-84
2023/06/18 06:35:27;;;;;;;4.22;2.75;;;;;;;;;;4995285;28;20965;-84
2023/06/18 06:37:53;;;;;;;3.45;2.30;;;;;;;;;;4998507;28;20108;-84
2023/06/18 06:40:19;;;;;;;5.05;3.00;;;;;;;;;;5002956;28;20564;-84
2023/06/18 06:42:45;;;;;;;4.57;2.85;;;;;;;;;;4996609;28;20584;-84
2023/06/18 06:45:11;;;;;;;4.00;2.45;;;;;;;;;;4990503;28;20031;-84
2023/06/18 06:47:37;;;;;;;3.38;2.35;;;;;;;;;;4999748;28;20030;-84
2023/06/18 06:50:03;;;;;;;4.13;2.47;;;;;;;;;;4999740;28;20429;-84
2023/06/18 06:52:29;;;;;;;3.40;2.30;;;;;;;;;;4994057;28;20038;-84
2023/06/18 06:54:55;;;;;;;3.13;2.42;;;;;;;;;;4994682;28;20080;-82
2023/06/18 06:57:21;;;;;;;2.80;2.30;;;;;;;;;;4995648;28;20033;-84
2023/06/18 06:59:47;;;;;;;3.40;2.42;;;;;;;;;;4998403;28;20027;-78
2023/06/18 07:02:13;;;;;;;3.35;2.67;;;;;;;;;;5005432;28;20230;-82
2023/06/18 07:04:45;;;;;;;3.40;2.63;;;;;;;;;;5006146;28;20496;-77
2023/06/18 07:07:12;;;;;;;2.60;2.17;;;;;;;;;;4997380;28;20041;-80
2023/06/18 07:09:38;;;;;;;3.80;2.65;;;;;;;;;;5003584;28;20044;-79
2023/06/18 07:12:04;;;;;;;4.72;2.83;;;;;;;;;;4980677;28;20034;-80
2023/06/18 07:14:30;;;;;;;3.85;2.70;;;;;;;;;;4994768;28;20388;-79
2023/06/18 07:16:56;;;;;;;5.97;2.97;;;;;;;;;;4991830;28;20022;-77
2023/06/18 07:19:22;;;;;;;3.88;2.28;;;;;;;;;;5003986;28;20520;-77
2023/06/18 07:21:50;;;;;;;3.05;2.40;;;;;;;;;;5007222;28;20376;-76
2023/06/18 07:24:16;;;;;;;2.95;2.58;;;;;;;;;;4987463;28;20073;-76
2023/06/18 07:26:47;;;;;;;4.82;2.78;;;;;;;;;;5008068;28;20034;-77
2023/06/18 07:29:13;;;;;;;3.95;2.88;;;;;;;;;;4995179;28;20057;-76
2023/06/18 07:31:39;;;;;;;3.38;2.38;;;;;;;;;;4997928;28;20056;-78
2023/06/18 07:34:08;;;;;;;2.72;2.20;;;;;;;;;;4996801;28;20023;-78
2023/06/18 07:36:34;;;;;;;4.00;2.60;;;;;;;;;;4999996;28;20025;-75
2023/06/18 07:39:00;;;;;;;2.95;2.20;;;;;;;;;;5000034;28;20022;-79
2023/06/18 07:41:26;;;;;;;4.05;2.47;;;;;;;;;;4999763;28;20026;-78
2023/06/18 07:43:52;;;;;;;4.95;2.17;;;;;;;;;;4997149;28;20042;-78
2023/06/18 07:46:18;;;;;;;3.70;2.53;;;;;;;;;;4994670;28;20117;-78
2023/06/18 07:48:45;;;;;;;3.28;2.17;;;;;;;;;;4992596;28;20027;-79
2023/06/18 07:51:11;;;;;;;2.75;2.15;;;;;;;;;;4995135;28;20032;-79
2023/06/18 07:53:39;;;;;;;3.03;2.13;;;;;;;;;;5002246;28;20018;-79
2023/06/18 07:56:08;;;;;;;3.17;2.38;;;;;;;;;;4999405;28;20109;-79
2023/06/18 07:58:34;;;;;;;2.50;2.03;;;;;;;;;;4996505;28;20080;-76
2023/06/18 08:01:00;;;;;;;4.93;2.38;;;;;;;;;;4991565;28;20521;-79
2023/06/18 08:03:26;;;;;;;5.10;2.17;;;;;;;;;;5002462;28;20437;-80
2023/06/18 08:05:52;;;;;;;2.67;2.08;;;;;;;;;;4991688;28;20140;-79
2023/06/18 08:08:19;;;;;;;3.90;2.38;;;;;;;;;;4988121;28;20037;-79
2023/06/18 08:10:45;;;;;;;3.83;2.03;;;;;;;;;;4995154;28;20022;-79
2023/06/18 08:13:11;;;;;;;3.78;2.45;;;;;;;;;;4999107;28;20041;-79
2023/06/18 08:15:37;;;;;;;3.17;2.25;;;;;;;;;;5003967;28;20018;-79
2023/06/18 08:18:06;;;;;;;3.58;2.33;;;;;;;;;;4996751;28;20507;-79
2023/06/18 08:20:32;;;;;;;3.58;2.80;;;;;;;;;;5000857;28;20543;-80
2023/06/18 08:22:58;;;;;;;3.40;2.53;;;;;;;;;;4999572;28;20023;-77
2023/06/18 08:25:24;;;;;;;3.75;2.30;;;;;;;;;;4998137;28;20030;-77
2023/06/18 08:27:50;;;;;;;3.58;2.38;;;;;;;;;;5001596;28;20037;-78
2023/06/18 08:30:16;;;;;;;2.83;2.17;;;;;;;;;;4992264;28;20088;-80
2023/06/18 08:32:43;;;;;;;5.25;2.10;;;;;;;;;;5002544;28;20034;-79
2023/06/18 08:35:09;;;;;;;2.30;2.10;;;;;;;;;;4994157;28;20117;-78
2023/06/18 08:37:36;;;;;;;2.95;2.30;;;;;;;;;;4989872;28;20033;-79
2023/06/18 08:40:03;;;;;;;2.80;1.90;;;;;;;;;;5006562;28;20025;-80
2023/06/18 08:42:29;;;;;;;3.20;2.05;;;;;;;;;;4999074;28;20036;-79
2023/06/18 08:44:55;;;;;;;4.18;2.50;;;;;;;;;;4997537;28;20898;-82
2023/06/18 08:47:22;;;;;;;3.10;2.10;;;;;;;;;;4991911;28;20373;-76
2023/06/18 08:49:50;;;;;;;3.10;2.38;;;;;;;;;;4998898;28;20481;-75
2023/06/18 08:52:18;;;;;;;2.78;2.33;;;;;;;;;;4999479;28;20104;-82
2023/06/18 08:54:45;;;;;;;2.67;2.00;;;;;;;;;;4993465;28;20034;-79
2023/06/18 08:57:22;;;;;;;2.55;1.98;;;;;;;;;;4990907;28;20030;-76
2023/06/18 08:59:49;;;;;;;2.70;2.35;;;;;;;;;;4977696;28;20133;-74
2023/06/18 09:02:21;;;;;;;2.97;2.30;;;;;;;;;;4992301;28;20058;-77
2023/06/18 09:04:47;;;;;;;4.20;2.15;;;;;;;;;;4996418;28;20133;-79
2023/06/18 09:07:13;;;;;;;2.15;1.77;;;;;;;;;;4996147;28;20176;-78
2023/06/18 09:09:39;;;;;;;3.55;2.33;;;;;;;;;;5004003;28;20109;-76
2023/06/18 09:12:05;;;;;;;2.72;1.95;;;;;;;;;;4996260;28;20492;-76
2023/06/18 09:14:31;;;;;;;2.45;2.08;;;;;;;;;;4990018;28;20478;-76
2023/06/18 09:16:57;;;;;;;4.15;1.92;;;;;;;;;;4999577;28;20045;-76
2023/06/18 09:19:24;;;;;;;3.42;2.35;;;;;;;;;;4990364;28;20040;-77
2023/06/18 09:21:50;;;;;;;3.00;2.08;;;;;;;;;;4991056;28;20026;-76
2023/06/18 09:24:17;;;;;;;2.72;2.08;;;;;;;;;;5003475;28;20018;-78
2023/06/18 09:26:43;;;;;;;4.53;2.05;;;;;;;;;;5005483;28;20538;-77
2023/06/18 09:29:10;;;;;;;3.08;2.25;;;;;;;;;;5001054;28;20106;-76
2023/06/18 09:31:43;;;;;;;10.07;2.17;;;;;;;;;;4998014;28;20038;-77
2023/06/18 09:34:18;;;;;;;1.98;1.67;;;;;;;;;;4995141;28;20060;-77
2023/06/18 09:36:48;;;;;;;2.72;2.20;;;;;;;;;;4993649;28;20042;-77
2023/06/18 09:39:21;;;;;;;3.80;2.40;;;;;;;;;;5004759;28;20389;-76
2023/06/18 09:41:49;;;;;;;3.03;2.03;;;;;;;;;;4993714;28;20040;-76
2023/06/18 09:44:15;;;;;;;2.92;1.90;;;;;;;;;;4993910;28;20030;-76
2023/06/18 09:46:48;;;;;;;4.03;2.35;;;;;;;;;;4994094;28;20027;-77
2023/06/18 09:49:16;;;;;;;3.05;2.25;;;;;;;;;;4994475;28;20042;-76
2023/06/18 09:51:42;;;;;;;4.22;2.72;;;;;;;;;;4994513;28;20036;-77
2023/06/18 09:54:09;;;;;;;2.95;2.10;;;;;;;;;;4998829;28;20571;-76
2023/06/18 09:56:35;;;;;;;2.55;1.98;;;;;;;;;;5000694;28;20109;-77
2023/06/18 09:59:03;;;;;;;2.47;2.20;;;;;;;;;;4995630;28;20176;-76
2023/06/18 10:01:29;;;;;;;4.30;2.35;;;;;;;;;;4991131;28;20030;-76
2023/06/18 10:03:55;;;;;;;2.25;2.05;;;;;;;;;;4997870;28;20034;-76
2023/06/18 10:06:23;;;;;;;3.28;2.35;;;;;;;;;;4992233;28;20061;-75
2023/06/18 10:08:50;;;;;;;4.93;2.45;;;;;;;;;;4993535;28;20033;-75
2023/06/18 10:11:17;;;;;;;4.22;2.40;;;;;;;;;;4996191;28;20396;-76
2023/06/18 10:13:47;;;;;;;5.32;2.15;;;;;;;;;;5004671;28;20034;-76
2023/06/18 10:16:15;;;;;;;3.00;2.20;;;;;;;;;;5002089;28;20041;-76
2023/06/18 10:19:00;;;;;;;4.20;2.47;;;;;;;;;;4995722;28;20096;-76
2023/06/18 10:21:28;;;;;;;2.58;2.10;;;;;;;;;;4990583;28;20057;-76
2023/06/18 10:23:55;;;;;;;3.58;2.25;;;;;;;;;;4997935;28;20057;-77
2023/06/18 10:26:22;;;;;;;2.55;1.70;;;;;;;;;;5001855;28;20120;-76
2023/06/18 10:28:50;;;;;;;2.38;1.92;;;;;;;;;;5004395;28;20030;-76
2023/06/18 10:31:17;;;;;;;5.47;2.30;;;;;;;;;;5006475;28;20026;-76
2023/06/18 10:33:45;;;;;;;2.65;2.20;;;;;;;;;;4995842;28;20026;-76
2023/06/18 10:36:11;;;;;;;2.92;1.90;;;;;;;;;;5004081;28;20028;-75
2023/06/18 10:38:37;;;;;;;2.15;1.90;;;;;;;;;;5000769;28;20029;-76
2023/06/18 10:41:10;;;;;;;10.10;2.17;;;;;;;;;;4999885;28;20433;-75
2023/06/18 10:43:40;;;;;;;3.15;1.80;;;;;;;;;;4996535;28;20037;-76
2023/06/18 10:46:13;;;;;;;3.08;1.70;;;;;;;;;;5004133;28;20045;-74
2023/06/18 10:48:40;;;;;;;2.90;2.10;;;;;;;;;;5005047;28;20034;-84
2023/06/18 10:51:15;;;;;;;2.38;1.85;;;;;;;;;;4992605;28;20050;-82
2023/06/18 10:53:42;;;;;;;4.28;2.20;;;;;;;;;;4992807;28;20121;-80
2023/06/18 10:56:17;;;;;;;2.22;2.00;;;;;;;;;;4998916;28;20110;-77
2023/06/18 10:58:43;;;;;;;2.83;2.30;;;;;;;;;;5002877;28;20034;-84
2023/06/18 11:01:25;;;;;;;2.80;1.67;;;;;;;;;;5006823;28;20018;-81
2023/06/18 11:04:01;;;;;;;3.38;2.20;;;;;;;;;;4997414;28;20053;-81
2023/06/18 11:06:30;;;;;;;2.92;1.98;;;;;;;;;;4992829;28;20047;-79
2023/06/18 11:08:56;;;;;;;2.20;1.63;;;;;;;;;;5001433;28;20036;-75
2023/06/18 11:11:23;;;;;;;2.30;1.90;;;;;;;;;;4999817;28;20033;-82
2023/06/18 11:13:55;;;;;;;4.70;1.88;;;;;;;;;;5002026;28;20485;-81
2023/06/18 11:16:22;;;;;;;1.65;1.55;;;;;;;;;;4999132;28;20022;-80
2023/06/18 11:18:49;;;;;;;3.38;1.80;;;;;;;;;;4999550;28;20358;-80
2023/06/18 11:21:19;;;;;;;2.83;2.00;;;;;;;;;;4993739;28;20085;-81
2023/06/18 11:23:46;;;;;;;2.33;1.95;;;;;;;;;;5002885;28;20018;-81
2023/06/18 11:26:16;;;;;;;2.63;1.50;;;;;;;;;;4990604;28;20038;-81
2023/06/18 11:28:42;;;;;;;2.95;2.08;;;;;;;;;;4994766;28;20080;-77
2023/06/18 11:31:08;;;;;;;2.42;1.65;;;;;;;;;;4991666;28;20060;-77
2023/06/18 11:33:34;;;;;;;3.28;2.13;;;;;;;;;;4997760;28;20153;-83
2023/06/18 11:36:10;;;;;;;2.13;1.80;;;;;;;;;;4996557;28;20046;-85
2023/06/18 11:38:36;;;;;;;2.30;1.88;;;;;;;;;;4996587;28;20722;-82
2023/06/18 11:41:02;;;;;;;2.78;2.03;;;;;;;;;;4988336;28;20058;-81
2023/06/18 11:43:43;;;;;;;5.32;2.13;;;;;;;;;;5005571;28;20029;-82
2023/06/18 11:46:12;;;;;;;2.33;1.90;;;;;;;;;;5001315;28;20030;-83
2023/06/18 11:48:38;;;;;;;5.28;2.22;;;;;;;;;;4999285;28;20026;-82
2023/06/18 11:51:05;;;;;;;4.53;2.60;;;;;;;;;;5001992;28;20034;-81
2023/06/18 11:53:31;;;;;;;2.30;1.80;;;;;;;;;;4996681;28;20029;-81
2023/06/18 11:55:56;;;;;;;3.25;2.28;;;;;;;;;;5001442;28;20026;-81
2023/06/18 11:58:22;;;;;;;2.75;2.08;;;;;;;;;;5008614;28;20033;-82
2023/06/18 12:00:49;;;;;;;3.80;2.35;;;;;;;;;;4999817;28;20113;-81
2023/06/18 12:03:15;;;;;;;6.47;2.47;;;;;;;;;;5003575;28;20096;-81
2023/06/18 12:05:42;;;;;;;3.92;2.42;;;;;;;;;;4997938;28;20058;-80
2023/06/18 12:08:13;;;;;;;4.03;2.75;;;;;;;;;;4975224;28;20038;-79
2023/06/18 12:10:40;;;;;;;3.28;2.47;;;;;;;;;;4986732;28;20066;-79
2023/06/18 12:13:09;;;;;;;3.63;2.60;;;;;;;;;;4995819;28;20326;-79
2023/06/18 12:15:37;;;;;;;4.90;2.40;;;;;;;;;;4993613;28;20489;-73
2023/06/18 12:18:12;;;;;;;3.42;2.28;;;;;;;;;;5003284;28;20030;-78
2023/06/18 12:20:39;;;;;;;3.65;2.72;;;;;;;;;;5000183;28;20076;-75
2023/06/18 12:23:05;;;;;;;2.92;2.40;;;;;;;;;;5002416;28;20033;-83
2023/06/18 12:25:32;;;;;;;3.55;2.53;;;;;;;;;;5005839;28;20036;-84
2023/06/18 12:27:59;;;;;;;4.93;2.30;;;;;;;;;;4996057;28;20033;-74
2023/06/18 12:30:29;;;;;;;3.65;2.45;;;;;;;;;;5003515;28;20033;-82
2023/06/18 12:33:02;;;;;;;6.53;2.70;;;;;;;;;;4987036;28;20428;-78
2023/06/18 12:35:30;;;;;;;2.83;2.35;;;;;;;;;;5001287;28;20025;-76
2023/06/18 12:38:00;;;;;;;3.15;2.85;;;;;;;;;;4999978;28;20033;-80
2023/06/18 12:40:26;;;;;;;4.15;2.53;;;;;;;;;;4997036;28;20055;-81
2023/06/18 12:42:52;;;;;;;2.72;2.30;;;;;;;;;;4986557;28;20026;-82
2023/06/18 12:45:29;;;;;;;3.05;2.75;;;;;;;;;;5009855;28;20030;-83
2023/06/18 12:47:55;;;;;;;2.75;2.50;;;;;;;;;;5010063;28;20033;-79
2023/06/18 12:50:24;;;;;;;3.92;2.90;;;;;;;;;;5005419;28;20128;-77
2023/06/18 12:52:50;;;;;;;3.50;2.60;;;;;;;;;;4998104;28;20968;-77
2023/06/18 12:55:17;;;;;;;4.55;2.60;;;;;;;;;;5010976;28;20026;-77
2023/06/18 12:57:48;;;;;;;3.72;2.35;;;;;;;;;;5006704;28;20159;-78
2023/06/18 13:00:18;;;;;;;3.88;2.30;;;;;;;;;;5004380;28;20030;-79
2023/06/18 13:02:47;;;;;;;3.45;2.50;;;;;;;;;;4995677;28;20772;-78
2023/06/18 13:05:14;;;;;;;3.42;2.25;;;;;;;;;;4986099;28;20053;-76
2023/06/18 13:07:40;;;;;;;4.20;2.30;;;;;;;;;;5000577;28;20489;-77
2023/06/18 13:10:06;;;;;;;2.60;2.10;;;;;;;;;;5019963;28;20037;-77
2023/06/18 13:12:33;;;;;;;3.08;2.45;;;;;;;;;;5007479;28;20026;-77
2023/06/18 13:14:59;;;;;;;2.15;1.80;;;;;;;;;;4998014;28;20143;-79
2023/06/18 13:17:25;;;;;;;2.80;2.10;;;;;;;;;;5000407;28;20523;-77
2023/06/18 13:19:51;;;;;;;5.00;2.70;;;;;;;;;;5001251;28;20033;-77
2023/06/18 13:22:17;;;;;;;5.85;3.33;;;;;;;;;;4998260;28;20034;-78
2023/06/18 13:24:44;;;;;;;3.60;2.70;;;;;;;;;;5001790;28;20092;-79
2023/06/18 13:27:10;;;;;;;5.32;2.90;;;;;;;;;;5013162;28;20022;-80
2023/06/18 13:29:36;;;;;;;4.10;3.20;;;;;;;;;;5000308;28;20030;-79
2023/06/18 13:32:03;;;;;;;5.05;3.30;;;;;;;;;;5000329;28;20021;-76
2023/06/18 13:34:29;;;;;;;4.13;2.67;;;;;;;;;;5003558;28;20117;-76
2023/06/18 13:36:55;;;;;;;4.03;2.92;;;;;;;;;;5006022;28;20033;-76
2023/06/18 13:39:23;;;;;;;17.23;4.35;;;;;;;;;;5003130;28;20029;-75
2023/06/18 13:41:49;;;;;;;4.65;3.15;;;;;;;;;;4987307;28;20030;-75
2023/06/18 13:44:16;;;;;;;4.60;2.72;;;;;;;;;;4986393;28;20660;-75
2023/06/18 13:46:42;;;;;;;3.90;2.88;;;;;;;;;;4999318;28;20036;-75
2023/06/18 13:49:08;;;;;;;4.68;2.95;;;;;;;;;;4997892;28;20037;-76
2023/06/18 13:51:34;;;;;;;3.88;2.70;;;;;;;;;;5006178;28;20594;-76
2023/06/18 13:54:00;;;;;;;6.05;2.78;;;;;;;;;;5001827;28;20513;-82
2023/06/18 13:56:27;;;;;;;3.78;2.35;;;;;;;;;;4992439;28;20026;-76
2023/06/18 13:58:53;;;;;;;14.27;7.72;;;;;;;;;;4995783;28;20042;-76
2023/06/18 14:01:19;;;;;;;41.10;20.40;;;;;;;;;;4991164;28;20018;-76
2023/06/18 14:03:46;;;;;;;38.47;18.13;;;;;;;;;;5003821;28;20459;-76
2023/06/18 14:06:12;;;;;;;36.55;16.08;;;;;;;;;;5004604;28;20050;-76
2023/06/18 14:08:41;;;;;;;36.00;15.93;;;;;;;;;;5008756;28;20030;-77
2023/06/18 14:11:07;;;;;;;24.63;13.45;;;;;;;;;;5001903;28;20463;-79
2023/06/18 14:13:33;;;;;;;24.67;10.15;;;;;;;;;;5001956;28;20030;-78
2023/06/18 14:16:00;;;;;;;21.35;9.63;;;;;;;;;;4996316;28;20432;-76
2023/06/18 14:18:26;;;;;;;13.18;7.55;;;;;;;;;;4989498;28;20022;-74
2023/06/18 14:20:52;;;;;;;12.48;6.10;;;;;;;;;;4996485;28;20393;-79
2023/06/18 14:23:19;;;;;;;13.10;6.30;;;;;;;;;;4999958;28;20018;-75
2023/06/18 14:25:45;;;;;;;13.20;6.32;;;;;;;;;;5011116;28;20037;-76
2023/06/18 14:28:11;;;;;;;12.45;6.25;;;;;;;;;;5005233;28;20041;-75
2023/06/18 14:30:37;;;;;;;10.60;5.32;;;;;;;;;;4997210;28;20580;-76
2023/06/18 14:33:22;;;;;;;11.20;5.20;;;;;;;;;;5001485;28;20042;-75
2023/06/18 14:35:48;;;;;;;4.80;3.80;;;;;;;;;;5007327;28;20120;-76
2023/06/18 14:38:14;;;;;;;6.88;3.80;;;;;;;;;;5002889;28;20033;-76
2023/06/18 14:40:40;;;;;;;3.40;2.72;;;;;;;;;;4999004;28;20169;-76
2023/06/18 14:43:06;;;;;;;5.10;3.40;;;;;;;;;;4998885;28;20042;-76